createdAt,value
2022-10-17T00:01:00.588Z,97.27
2022-10-17T00:03:36.218Z,97.08
2022-10-17T00:06:09.966Z,97.15
2022-10-17T00:08:38.780Z,97.50
2022-10-17T00:11:16.958Z,97.96
2022-10-17T00:13:48.133Z,98.07
2022-10-17T00:16:25.142Z,98.37
2022-10-17T00:18:57.206Z,99.06
2022-10-17T00:21:28.501Z,99.59
2022-10-17T00:23:57.570Z,99.75
2022-10-17T00:26:30.152Z,99.72
2022-10-17T00:28:58.487Z,99.71
2022-10-17T00:31:26.526Z,99.80
2022-10-17T00:33:54.805Z,99.92
2022-10-17T00:36:27.186Z,99.97
2022-10-17T00:38:59.644Z,100.00
2022-10-17T00:41:30.809Z,100.00
2022-10-17T00:44:07.077Z,100.00
2022-10-17T00:46:39.424Z,100.00
2022-10-17T00:49:10.255Z,100.00
2022-10-17T00:51:51.340Z,100.00
2022-10-17T00:54:23.570Z,100.00
2022-10-17T00:56:52.262Z,100.00
2022-10-17T00:59:22.551Z,100.00
2022-10-17T01:02:02.511Z,100.00
2022-10-17T01:04:33.968Z,100.00
2022-10-17T01:07:02.096Z,100.00
2022-10-17T01:09:31.033Z,100.00
2022-10-17T01:11:59.491Z,100.00
2022-10-17T01:14:34.058Z,100.00
2022-10-17T01:17:28.385Z,100.00
2022-10-17T01:20:22.678Z,100.00
2022-10-17T01:23:10.611Z,100.00
2022-10-17T01:25:48.114Z,100.00
2022-10-17T01:31:19.460Z,100.00
2022-10-17T01:34:01.191Z,100.00
2022-10-17T01:36:44.968Z,100.00
2022-10-17T01:39:45.622Z,100.00
2022-10-17T01:42:39.194Z,100.00
2022-10-17T01:45:14.778Z,100.00
2022-10-17T01:47:49.374Z,100.00
2022-10-17T01:50:25.691Z,100.00
2022-10-17T01:53:08.174Z,100.00
2022-10-17T01:55:42.415Z,100.00
2022-10-17T01:58:16.961Z,100.00
2022-10-17T02:00:48.058Z,100.00
2022-10-17T02:03:21.070Z,100.00
2022-10-17T02:05:50.915Z,100.00
2022-10-17T02:08:40.864Z,100.00
2022-10-17T02:11:21.932Z,100.00
2022-10-17T02:14:31.770Z,100.00
2022-10-17T02:17:08.980Z,100.00
2022-10-17T02:20:23.429Z,100.00
2022-10-17T02:23:12.642Z,100.00
2022-10-17T02:26:01.407Z,100.00
2022-10-17T02:28:44.015Z,100.00
2022-10-17T02:31:25.227Z,100.00
2022-10-17T02:34:06.622Z,100.00
2022-10-17T02:36:45.646Z,100.00
2022-10-17T02:39:16.064Z,100.00
2022-10-17T02:41:46.447Z,100.00
2022-10-17T02:44:14.787Z,100.00
2022-10-17T02:46:47.937Z,100.00
2022-10-17T02:49:25.182Z,100.00
2022-10-17T02:52:15.984Z,100.00
2022-10-17T02:54:54.656Z,100.00
2022-10-17T02:57:30.950Z,100.00
2022-10-17T03:00:07.602Z,100.00
2022-10-17T03:02:43.052Z,100.00
2022-10-17T03:05:19.564Z,100.00
2022-10-17T03:07:48.562Z,100.00
2022-10-17T03:10:22.720Z,100.00
2022-10-17T03:12:52.318Z,100.00
2022-10-17T03:15:20.883Z,100.00
2022-10-17T03:17:51.273Z,100.00
2022-10-17T03:20:19.813Z,100.00
2022-10-17T03:22:49.158Z,100.00
2022-10-17T03:25:17.774Z,100.00
2022-10-17T03:27:47.006Z,100.00
2022-10-17T03:30:16.234Z,100.00
2022-10-17T03:32:44.625Z,100.00
2022-10-17T03:35:17.130Z,100.00
2022-10-17T03:37:45.850Z,100.00
2022-10-17T03:40:14.772Z,100.00
2022-10-17T03:42:47.424Z,100.00
2022-10-17T03:45:16.175Z,100.00
2022-10-17T03:47:44.341Z,100.00
2022-10-17T03:50:12.829Z,100.00
2022-10-17T03:52:42.332Z,100.00
2022-10-17T03:55:10.318Z,100.00
2022-10-17T03:57:41.092Z,100.00
2022-10-17T04:00:13.020Z,100.00
2022-10-17T04:02:41.533Z,100.00
2022-10-17T04:05:09.738Z,100.00
2022-10-17T04:07:38.501Z,100.00
2022-10-17T04:10:07.077Z,100.00
2022-10-17T04:12:35.406Z,100.00
2022-10-17T04:15:04.576Z,100.00
2022-10-17T04:17:37.229Z,100.00
2022-10-17T04:20:07.182Z,100.00
2022-10-17T04:22:36.162Z,100.00
2022-10-17T04:25:05.152Z,100.00
2022-10-17T04:27:33.253Z,100.00
2022-10-17T04:30:01.312Z,100.00
2022-10-17T04:32:37.425Z,100.00
2022-10-17T04:35:05.945Z,100.00
2022-10-17T04:37:34.506Z,100.00
2022-10-17T04:40:03.471Z,100.00
2022-10-17T04:42:31.961Z,100.00
2022-10-17T04:45:00.386Z,100.00
2022-10-17T04:47:30.372Z,100.00
2022-10-17T04:49:58.422Z,100.00
2022-10-17T04:52:27.259Z,100.00
2022-10-17T04:54:55.735Z,100.00
2022-10-17T04:57:25.052Z,100.00
2022-10-17T04:59:53.226Z,100.00
2022-10-17T05:02:21.258Z,100.00
2022-10-17T05:04:49.466Z,100.00
2022-10-17T05:07:17.610Z,100.00
2022-10-17T05:09:45.794Z,100.00
2022-10-17T05:12:13.747Z,100.00
2022-10-17T05:14:42.680Z,100.00
2022-10-17T05:17:11.365Z,100.00
2022-10-17T05:19:39.512Z,100.00
2022-10-17T05:22:07.727Z,100.00
2022-10-17T05:24:35.804Z,100.00
2022-10-17T05:27:03.837Z,100.00
2022-10-17T05:29:32.033Z,100.00
2022-10-17T05:34:28.045Z,100.00
2022-10-17T05:37:02.581Z,100.00
2022-10-17T05:39:30.694Z,100.00
2022-10-17T05:41:58.820Z,100.00
2022-10-17T05:44:26.910Z,100.00
2022-10-17T05:46:54.943Z,100.00
2022-10-17T05:49:33.254Z,100.00
2022-10-17T05:52:11.598Z,100.00
2022-10-17T05:54:39.921Z,100.00
2022-10-17T05:57:08.142Z,100.00
2022-10-17T05:59:36.284Z,100.00
2022-10-17T06:02:05.168Z,100.00
2022-10-17T06:04:35.606Z,100.00
2022-10-17T06:07:05.196Z,100.00
2022-10-17T06:09:33.819Z,100.00
2022-10-17T06:12:01.897Z,100.00
2022-10-17T06:14:30.115Z,100.00
2022-10-17T06:16:59.434Z,100.00
2022-10-17T06:19:27.792Z,100.00
2022-10-17T06:21:55.885Z,100.00
2022-10-17T06:24:24.665Z,100.00
2022-10-17T06:26:53.031Z,100.00
2022-10-17T06:29:25.986Z,100.00
2022-10-17T06:31:56.966Z,100.00
2022-10-17T06:34:27.656Z,100.00
2022-10-17T06:37:03.542Z,100.00
2022-10-17T06:39:42.146Z,100.00
2022-10-17T06:42:28.028Z,100.00
2022-10-17T06:44:59.490Z,100.00
2022-10-17T06:47:31.670Z,100.00
2022-10-17T06:50:02.866Z,100.00
2022-10-17T06:52:37.938Z,100.00
2022-10-17T06:55:21.966Z,100.00
2022-10-17T06:58:02.308Z,100.00
2022-10-17T07:00:31.936Z,100.00
2022-10-17T07:03:09.806Z,100.00
2022-10-17T07:05:55.090Z,100.00
2022-10-17T07:08:34.220Z,100.00
2022-10-17T07:11:23.532Z,100.00
2022-10-17T07:13:52.907Z,100.00
2022-10-17T07:16:30.692Z,100.00
2022-10-17T07:19:21.362Z,100.00
2022-10-17T07:22:15.578Z,100.00
2022-10-17T07:27:27.952Z,100.00
2022-10-17T07:29:56.971Z,100.00
2022-10-17T07:32:30.803Z,100.00
2022-10-17T07:35:02.535Z,100.00
2022-10-17T07:37:43.065Z,100.00
2022-10-17T07:40:21.710Z,100.00
2022-10-17T07:42:52.576Z,100.00
2022-10-17T07:45:51.224Z,100.00
2022-10-17T07:49:03.681Z,100.00
2022-10-17T07:51:36.198Z,100.00
2022-10-17T07:54:26.655Z,99.93
2022-10-17T07:56:59.969Z,99.64
2022-10-17T07:59:31.017Z,99.28
2022-10-17T08:02:09.207Z,98.15
2022-10-17T08:04:43.806Z,98.04
2022-10-17T08:07:24.111Z,97.54
2022-10-17T08:09:54.726Z,97.18
2022-10-17T08:12:27.088Z,96.92
2022-10-17T08:15:06.325Z,96.38
2022-10-17T08:17:57.172Z,95.39
2022-10-17T08:20:36.370Z,93.91
2022-10-17T08:23:09.525Z,93.75
2022-10-17T08:25:45.936Z,92.57
2022-10-17T08:28:20.646Z,91.51
2022-10-17T08:31:24.027Z,91.17
2022-10-17T08:33:56.149Z,90.41
2022-10-17T08:36:35.297Z,90.29
2022-10-17T08:39:14.346Z,89.68
2022-10-17T08:41:59.930Z,89.41
2022-10-17T08:44:56.416Z,88.65
2022-10-17T08:47:43.482Z,87.27
2022-10-17T08:50:31.887Z,87.78
2022-10-17T08:53:33.321Z,87.39
2022-10-17T08:56:49.004Z,86.61
2022-10-17T08:59:31.175Z,86.19
2022-10-17T09:02:06.692Z,84.49
2022-10-17T09:05:07.726Z,83.63
2022-10-17T09:07:52.261Z,82.66
2022-10-17T09:10:40.371Z,81.91
2022-10-17T09:13:19.581Z,80.81
2022-10-17T09:16:11.348Z,80.30
2022-10-17T09:19:20.415Z,80.41
2022-10-17T09:22:14.649Z,80.25
2022-10-17T09:25:00.862Z,79.95
2022-10-17T09:27:59.683Z,78.96
2022-10-17T09:30:45.931Z,78.57
2022-10-17T09:33:59.209Z,78.14
2022-10-17T09:36:43.722Z,76.73
2022-10-17T09:39:32.262Z,76.55
2022-10-17T09:42:05.112Z,77.23
2022-10-17T09:44:52.359Z,77.08
2022-10-17T09:47:40.958Z,76.49
2022-10-17T09:50:26.720Z,74.62
2022-10-17T09:52:58.277Z,73.97
2022-10-17T09:56:02.416Z,73.98
2022-10-17T09:58:48.267Z,72.59
2022-10-17T10:01:24.403Z,71.44
2022-10-17T10:04:46.736Z,70.90
2022-10-17T10:07:29.241Z,71.06
2022-10-17T10:10:05.909Z,70.62
2022-10-17T10:12:38.488Z,70.71
2022-10-17T10:15:34.232Z,70.57
2022-10-17T10:21:17.122Z,67.74
2022-10-17T10:24:06.474Z,65.41
2022-10-17T10:27:03.027Z,65.60
2022-10-17T10:29:34.321Z,65.54
2022-10-17T10:32:28.982Z,66.23
2022-10-17T10:35:09.977Z,66.59
2022-10-17T10:37:46.845Z,67.02
2022-10-17T10:40:59.774Z,67.20
2022-10-17T10:43:42.579Z,66.99
2022-10-17T10:46:27.275Z,67.00
2022-10-17T10:49:11.434Z,67.09
2022-10-17T10:51:53.333Z,65.66
2022-10-17T10:54:36.902Z,65.12
2022-10-17T10:57:34.350Z,64.36
2022-10-17T11:00:17.965Z,62.60
2022-10-17T11:03:26.564Z,63.50
2022-10-17T11:06:21.846Z,62.89
2022-10-17T11:09:11.506Z,62.68
2022-10-17T11:11:56.408Z,61.92
2022-10-17T11:14:42.880Z,61.82
2022-10-17T11:17:38.751Z,61.65
2022-10-17T11:20:26.324Z,60.75
2022-10-17T11:23:12.740Z,59.94
2022-10-17T11:26:01.231Z,60.19
2022-10-17T11:28:41.892Z,59.47
2022-10-17T11:31:15.134Z,60.77
2022-10-17T11:33:59.175Z,60.33
2022-10-17T11:36:37.945Z,59.41
2022-10-17T11:39:31.717Z,58.69
2022-10-17T11:42:25.868Z,59.00
2022-10-17T11:45:11.451Z,57.76
2022-10-17T11:48:00.610Z,57.80
2022-10-17T11:53:51.868Z,57.88
2022-10-17T11:56:51.116Z,57.57
2022-10-17T11:59:43.980Z,57.13
2022-10-17T12:02:34.014Z,57.07
2022-10-17T12:05:25.752Z,57.04
2022-10-17T12:08:18.509Z,57.63
2022-10-17T12:11:28.912Z,57.21
2022-10-17T12:13:57.424Z,55.72
2022-10-17T12:16:46.978Z,56.16
2022-10-17T12:19:25.944Z,55.12
2022-10-17T12:22:03.557Z,54.86
2022-10-17T12:24:32.947Z,55.07
2022-10-17T12:27:44.194Z,54.62
2022-10-17T12:30:30.464Z,53.95
2022-10-17T12:33:07.496Z,54.38
2022-10-17T12:35:38.875Z,55.44
2022-10-17T12:38:28.976Z,55.72
2022-10-17T12:40:59.738Z,55.12
2022-10-17T12:43:28.454Z,55.53
2022-10-17T12:45:57.626Z,55.67
2022-10-17T12:48:34.866Z,55.92
2022-10-17T12:51:35.201Z,56.37
2022-10-17T12:54:15.268Z,56.33
2022-10-17T12:56:51.883Z,56.02
2022-10-17T12:59:36.207Z,56.02
2022-10-17T13:02:18.070Z,56.45
2022-10-17T13:04:57.325Z,55.76
2022-10-17T13:07:40.311Z,54.76
2022-10-17T13:10:24.248Z,53.94
2022-10-17T13:13:24.294Z,53.85
2022-10-17T13:15:55.732Z,54.15
2022-10-17T13:18:27.530Z,53.92
2022-10-17T13:21:00.441Z,52.65
2022-10-17T13:23:42.579Z,51.86
2022-10-17T13:26:33.830Z,51.87
2022-10-17T13:29:16.590Z,50.93
2022-10-17T13:31:53.515Z,50.80
2022-10-17T13:34:28.467Z,50.16
2022-10-17T13:37:10.869Z,49.98
2022-10-17T13:39:55.178Z,49.68
2022-10-17T13:42:42.003Z,50.11
2022-10-17T13:45:27.917Z,50.85
2022-10-17T13:48:17.373Z,51.26
2022-10-17T13:50:50.613Z,51.40
2022-10-17T13:53:29.959Z,50.78
2022-10-17T13:56:26.447Z,50.72
2022-10-17T13:58:54.205Z,51.12
2022-10-17T14:01:28.700Z,50.82
2022-10-17T14:04:08.867Z,50.90
2022-10-17T14:06:49.733Z,51.01
2022-10-17T14:09:31.237Z,51.46
2022-10-17T14:12:11.320Z,51.26
2022-10-17T14:15:09.280Z,51.26
2022-10-17T14:17:42.550Z,51.50
2022-10-17T14:23:34.287Z,51.89
2022-10-17T14:26:12.513Z,52.24
2022-10-17T14:28:50.865Z,52.65
2022-10-17T14:31:29.391Z,53.16
2022-10-17T14:34:01.238Z,53.51
2022-10-17T14:36:43.517Z,53.87
2022-10-17T14:39:21.126Z,54.09
2022-10-17T14:41:59.636Z,54.32
2022-10-17T14:44:36.875Z,54.75
2022-10-17T14:47:42.375Z,55.10
2022-10-17T14:50:12.023Z,55.07
2022-10-17T14:52:41.104Z,55.35
2022-10-17T14:55:27.257Z,55.70
2022-10-17T14:58:01.182Z,56.19
2022-10-17T15:00:37.079Z,56.57
2022-10-17T15:03:11.969Z,57.09
2022-10-17T15:05:40.541Z,57.77
2022-10-17T15:08:20.304Z,58.31
2022-10-17T15:10:54.872Z,58.82
2022-10-17T15:13:28.008Z,59.50
2022-10-17T15:15:59.908Z,60.03
2022-10-17T15:18:28.802Z,60.84
2022-10-17T15:21:04.829Z,61.43
2022-10-17T15:23:42.657Z,62.20
2022-10-17T15:26:20.581Z,63.04
2022-10-17T15:28:50.305Z,63.90
2022-10-17T15:31:20.150Z,64.55
2022-10-17T15:33:48.398Z,65.50
2022-10-17T15:36:27.607Z,66.20
2022-10-17T15:38:58.319Z,66.98
2022-10-17T15:41:29.654Z,67.51
2022-10-17T15:43:59.726Z,68.07
2022-10-17T15:46:30.844Z,68.66
2022-10-17T15:49:01.910Z,69.09
2022-10-17T15:51:31.646Z,69.94
2022-10-17T15:54:02.871Z,70.53
2022-10-17T15:56:36.601Z,70.94
2022-10-17T15:59:13.145Z,71.28
2022-10-17T16:01:43.192Z,72.06
2022-10-17T16:04:16.043Z,72.49
2022-10-17T16:06:45.380Z,73.19
2022-10-17T16:09:13.666Z,73.57
2022-10-17T16:11:43.931Z,73.76
2022-10-17T16:14:18.412Z,74.32
2022-10-17T16:16:47.370Z,74.38
2022-10-17T16:19:17.272Z,74.90
2022-10-17T16:21:47.019Z,74.86
2022-10-17T16:24:18.816Z,75.10
2022-10-17T16:26:59.366Z,75.45
2022-10-17T16:29:30.640Z,75.42
2022-10-17T16:31:58.768Z,74.67
2022-10-17T16:34:26.917Z,73.96
2022-10-17T16:36:55.098Z,73.02
2022-10-17T16:39:23.827Z,72.90
2022-10-17T16:41:58.686Z,72.85
2022-10-17T16:44:27.282Z,72.77
2022-10-17T16:46:56.865Z,72.22
2022-10-17T16:49:26.501Z,72.25
2022-10-17T16:51:58.917Z,71.91
2022-10-17T16:54:30.602Z,71.25
2022-10-17T16:56:58.931Z,70.55
2022-10-17T16:59:28.222Z,70.15
2022-10-17T17:01:57.567Z,70.12
2022-10-17T17:04:26.768Z,70.07
2022-10-17T17:06:54.935Z,69.79
2022-10-17T17:09:23.202Z,69.74
2022-10-17T17:11:51.422Z,69.58
2022-10-17T17:14:19.987Z,69.20
2022-10-17T17:16:48.595Z,69.16
2022-10-17T17:19:17.546Z,68.96
2022-10-17T17:21:50.877Z,68.93
2022-10-17T17:24:23.568Z,69.01
2022-10-17T17:26:54.369Z,69.11
2022-10-17T17:29:24.543Z,68.93
2022-10-17T17:31:53.058Z,68.77
2022-10-17T17:34:21.351Z,68.66
2022-10-17T17:36:50.950Z,68.09
2022-10-17T17:39:19.600Z,67.98
2022-10-17T17:41:48.260Z,67.71
2022-10-17T17:44:17.278Z,67.32
2022-10-17T17:46:46.310Z,67.15
2022-10-17T17:49:14.607Z,66.92
2022-10-17T17:51:46.670Z,67.24
2022-10-17T17:54:15.744Z,67.11
2022-10-17T18:14:19.503Z,67.07
2022-10-17T18:40:05.870Z,66.41
2022-10-17T18:58:47.676Z,66.84
2022-10-17T19:02:37.984Z,67.09
2022-10-17T22:01:48.286Z,72.50
2022-10-17T22:04:23.677Z,72.89
2022-10-17T22:07:08.384Z,73.11
2022-10-17T22:10:02.526Z,73.28
2022-10-17T22:12:54.662Z,73.20
2022-10-17T22:15:43.242Z,73.41
2022-10-17T22:19:12.374Z,73.45
2022-10-17T22:25:30.893Z,73.44
2022-10-17T22:28:53.365Z,73.83
2022-10-17T22:31:42.403Z,73.74
2022-10-17T22:34:35.038Z,73.87
2022-10-17T22:40:58.364Z,74.08
2022-10-17T22:43:39.228Z,74.10
2022-10-17T22:46:13.558Z,74.41
2022-10-17T22:49:02.080Z,74.30
2022-10-17T22:51:43.658Z,74.27
2022-10-17T22:54:34.645Z,74.39
2022-10-17T22:57:15.224Z,74.34
2022-10-17T23:00:03.680Z,74.48
2022-10-17T23:02:41.955Z,74.46
2022-10-17T23:05:19.487Z,74.60
2022-10-17T23:08:21.301Z,74.49
2022-10-17T23:11:14.263Z,74.52
2022-10-17T23:13:52.255Z,74.64
2022-10-17T23:16:24.480Z,74.85
2022-10-17T23:19:25.511Z,74.90
2022-10-17T23:22:45.166Z,75.12
2022-10-17T23:25:16.977Z,75.04
2022-10-17T23:27:48.254Z,75.21
2022-10-17T23:30:43.122Z,75.34
2022-10-17T23:33:26.398Z,75.50
2022-10-17T23:37:05.775Z,75.38
2022-10-17T23:39:46.262Z,75.69
2022-10-17T23:42:49.049Z,75.61
2022-10-17T23:45:36.859Z,75.82
2022-10-17T23:48:19.184Z,75.89
2022-10-17T23:51:09.387Z,76.05
2022-10-17T23:53:53.290Z,76.07
2022-10-17T23:56:59.215Z,76.21
